sensor_id;sensor_type;location;lat;lon;timestamp;temperature;humidity
6462;DHT22;3264;42.862;25.098;2022-10-16T00:01:48;5.80;99.90
6462;DHT22;3264;42.862;25.098;2022-10-16T00:04:20;5.80;99.90
6462;DHT22;3264;42.862;25.098;2022-10-16T00:06:48;5.70;99.90
6462;DHT22;3264;42.862;25.098;2022-10-16T00:09:22;5.70;99.90
6462;DHT22;3264;42.862;25.098;2022-10-16T00:11:50;5.70;99.90
6462;DHT22;3264;42.862;25.098;2022-10-16T00:14:19;5.60;99.90
6462;DHT22;3264;42.862;25.098;2022-10-16T00:16:47;5.60;99.90
6462;DHT22;3264;42.862;25.098;2022-10-16T00:19:14;5.60;99.90
6462;DHT22;3264;42.862;25.098;2022-10-16T00:21:42;5.60;99.90
6462;DHT22;3264;42.862;25.098;2022-10-16T00:24:18;5.60;99.90
6462;DHT22;3264;42.862;25.098;2022-10-16T00:26:45;5.70;99.90
6462;DHT22;3264;42.862;25.098;2022-10-16T00:29:21;5.60;99.90
6462;DHT22;3264;42.862;25.098;2022-10-16T00:31:49;5.60;99.90
6462;DHT22;3264;42.862;25.098;2022-10-16T00:34:17;5.60;99.90
6462;DHT22;3264;42.862;25.098;2022-10-16T00:36:44;5.50;99.90
6462;DHT22;3264;42.862;25.098;2022-10-16T00:39:12;5.50;99.90
6462;DHT22;3264;42.862;25.098;2022-10-16T00:41:41;5.50;99.90
6462;DHT22;3264;42.862;25.098;2022-10-16T00:44:45;5.50;99.90
6462;DHT22;3264;42.862;25.098;2022-10-16T00:47:19;5.40;99.90
6462;DHT22;3264;42.862;25.098;2022-10-16T00:49:48;5.40;99.90
6462;DHT22;3264;42.862;25.098;2022-10-16T00:52:18;5.40;99.90
6462;DHT22;3264;42.862;25.098;2022-10-16T00:54:47;5.40;99.90
6462;DHT22;3264;42.862;25.098;2022-10-16T00:57:17;5.40;99.90
6462;DHT22;3264;42.862;25.098;2022-10-16T00:59:47;5.40;99.90
6462;DHT22;3264;42.862;25.098;2022-10-16T01:02:16;5.30;99.90
6462;DHT22;3264;42.862;25.098;2022-10-16T01:04:47;5.20;99.90
6462;DHT22;3264;42.862;25.098;2022-10-16T01:07:26;5.00;99.90
6462;DHT22;3264;42.862;25.098;2022-10-16T01:10:07;5.10;99.90
6462;DHT22;3264;42.862;25.098;2022-10-16T01:12:42;5.10;99.90
6462;DHT22;3264;42.862;25.098;2022-10-16T01:15:20;5.10;99.90
6462;DHT22;3264;42.862;25.098;2022-10-16T01:17:53;5.10;99.90
6462;DHT22;3264;42.862;25.098;2022-10-16T01:20:28;5.10;99.90
6462;DHT22;3264;42.862;25.098;2022-10-16T01:23:07;5.10;99.90
6462;DHT22;3264;42.862;25.098;2022-10-16T01:25:59;5.10;99.90
6462;DHT22;3264;42.862;25.098;2022-10-16T01:28:36;5.10;99.90
6462;DHT22;3264;42.862;25.098;2022-10-16T01:31:07;5.10;99.90
6462;DHT22;3264;42.862;25.098;2022-10-16T01:33:42;5.00;99.90
6462;DHT22;3264;42.862;25.098;2022-10-16T01:36:14;5.00;99.90
6462;DHT22;3264;42.862;25.098;2022-10-16T01:38:46;5.00;99.90
6462;DHT22;3264;42.862;25.098;2022-10-16T01:41:18;5.00;99.90
6462;DHT22;3264;42.862;25.098;2022-10-16T01:43:51;5.00;99.90
6462;DHT22;3264;42.862;25.098;2022-10-16T01:46:22;4.90;99.90
6462;DHT22;3264;42.862;25.098;2022-10-16T01:48:51;4.90;99.90
6462;DHT22;3264;42.862;25.098;2022-10-16T01:51:21;4.80;99.90
6462;DHT22;3264;42.862;25.098;2022-10-16T01:53:53;4.80;99.90
6462;DHT22;3264;42.862;25.098;2022-10-16T01:56:23;4.80;99.90
6462;DHT22;3264;42.862;25.098;2022-10-16T01:58:57;4.80;99.90
6462;DHT22;3264;42.862;25.098;2022-10-16T02:01:27;4.80;99.90
6462;DHT22;3264;42.862;25.098;2022-10-16T02:04:00;4.70;99.90
6462;DHT22;3264;42.862;25.098;2022-10-16T02:06:30;4.60;99.90
6462;DHT22;3264;42.862;25.098;2022-10-16T02:08:59;4.50;99.90
6462;DHT22;3264;42.862;25.098;2022-10-16T02:11:27;4.50;99.90
6462;DHT22;3264;42.862;25.098;2022-10-16T02:14:00;4.50;99.90
6462;DHT22;3264;42.862;25.098;2022-10-16T02:16:34;4.60;99.90
6462;DHT22;3264;42.862;25.098;2022-10-16T02:19:04;4.60;99.90
6462;DHT22;3264;42.862;25.098;2022-10-16T02:21:39;4.60;99.90
6462;DHT22;3264;42.862;25.098;2022-10-16T02:24:16;4.70;99.90
6462;DHT22;3264;42.862;25.098;2022-10-16T02:26:50;4.70;99.90
6462;DHT22;3264;42.862;25.098;2022-10-16T02:29:23;4.60;99.90
6462;DHT22;3264;42.862;25.098;2022-10-16T02:31:56;4.60;99.90
6462;DHT22;3264;42.862;25.098;2022-10-16T02:34:27;4.50;99.90
6462;DHT22;3264;42.862;25.098;2022-10-16T02:36:59;4.50;99.90
6462;DHT22;3264;42.862;25.098;2022-10-16T02:39:28;4.50;99.90
6462;DHT22;3264;42.862;25.098;2022-10-16T02:41:57;4.40;99.90
6462;DHT22;3264;42.862;25.098;2022-10-16T02:44:28;4.50;99.90
6462;DHT22;3264;42.862;25.098;2022-10-16T02:46:56;4.50;99.90
6462;DHT22;3264;42.862;25.098;2022-10-16T02:49:25;4.40;99.90
6462;DHT22;3264;42.862;25.098;2022-10-16T02:51:54;4.40;99.90
6462;DHT22;3264;42.862;25.098;2022-10-16T02:54:22;4.40;99.90
6462;DHT22;3264;42.862;25.098;2022-10-16T02:56:51;4.40;99.90
6462;DHT22;3264;42.862;25.098;2022-10-16T02:59:20;4.30;99.90
6462;DHT22;3264;42.862;25.098;2022-10-16T03:01:50;4.30;99.90
6462;DHT22;3264;42.862;25.098;2022-10-16T03:04:18;4.30;99.90
6462;DHT22;3264;42.862;25.098;2022-10-16T03:06:46;4.20;99.90
6462;DHT22;3264;42.862;25.098;2022-10-16T03:09:14;4.20;99.90
6462;DHT22;3264;42.862;25.098;2022-10-16T03:11:43;4.10;99.90
6462;DHT22;3264;42.862;25.098;2022-10-16T03:14:10;4.00;99.90
6462;DHT22;3264;42.862;25.098;2022-10-16T03:16:39;4.00;99.90
6462;DHT22;3264;42.862;25.098;2022-10-16T03:19:09;4.00;99.90
6462;DHT22;3264;42.862;25.098;2022-10-16T03:21:37;4.00;99.90
6462;DHT22;3264;42.862;25.098;2022-10-16T03:24:06;4.10;99.90
6462;DHT22;3264;42.862;25.098;2022-10-16T03:26:34;4.10;99.90
6462;DHT22;3264;42.862;25.098;2022-10-16T03:29:03;4.10;99.90
6462;DHT22;3264;42.862;25.098;2022-10-16T03:31:32;4.10;99.90
6462;DHT22;3264;42.862;25.098;2022-10-16T03:33:59;4.10;99.90
6462;DHT22;3264;42.862;25.098;2022-10-16T03:36:29;4.10;99.90
6462;DHT22;3264;42.862;25.098;2022-10-16T03:38:58;4.10;99.90
6462;DHT22;3264;42.862;25.098;2022-10-16T03:41:25;4.10;99.90
6462;DHT22;3264;42.862;25.098;2022-10-16T03:43:54;4.00;99.90
6462;DHT22;3264;42.862;25.098;2022-10-16T03:46:23;4.10;99.90
6462;DHT22;3264;42.862;25.098;2022-10-16T03:48:50;4.10;99.90
6462;DHT22;3264;42.862;25.098;2022-10-16T03:51:18;4.10;99.90
6462;DHT22;3264;42.862;25.098;2022-10-16T03:53:48;4.10;99.90
6462;DHT22;3264;42.862;25.098;2022-10-16T03:56:16;4.10;99.90
6462;DHT22;3264;42.862;25.098;2022-10-16T03:58:45;4.00;99.90
6462;DHT22;3264;42.862;25.098;2022-10-16T04:01:13;3.90;99.90
6462;DHT22;3264;42.862;25.098;2022-10-16T04:03:41;3.90;99.90
6462;DHT22;3264;42.862;25.098;2022-10-16T04:06:08;3.90;99.90
6462;DHT22;3264;42.862;25.098;2022-10-16T04:08:37;3.90;99.90
6462;DHT22;3264;42.862;25.098;2022-10-16T04:11:07;3.90;99.90
6462;DHT22;3264;42.862;25.098;2022-10-16T04:13:36;3.80;99.90
6462;DHT22;3264;42.862;25.098;2022-10-16T04:16:05;3.90;99.90
6462;DHT22;3264;42.862;25.098;2022-10-16T04:18:33;3.90;99.90
6462;DHT22;3264;42.862;25.098;2022-10-16T04:21:25;4.00;99.90
6462;DHT22;3264;42.862;25.098;2022-10-16T04:23:54;3.90;99.90
6462;DHT22;3264;42.862;25.098;2022-10-16T04:26:24;3.90;99.90
6462;DHT22;3264;42.862;25.098;2022-10-16T04:28:52;3.90;99.90
6462;DHT22;3264;42.862;25.098;2022-10-16T04:31:21;3.90;99.90
6462;DHT22;3264;42.862;25.098;2022-10-16T04:33:49;3.90;99.90
6462;DHT22;3264;42.862;25.098;2022-10-16T04:36:16;3.90;99.90
6462;DHT22;3264;42.862;25.098;2022-10-16T04:38:45;3.80;99.90
6462;DHT22;3264;42.862;25.098;2022-10-16T04:41:13;3.80;99.90
6462;DHT22;3264;42.862;25.098;2022-10-16T04:43:43;3.70;99.90
6462;DHT22;3264;42.862;25.098;2022-10-16T04:46:11;3.60;99.90
6462;DHT22;3264;42.862;25.098;2022-10-16T04:48:40;3.70;99.90
6462;DHT22;3264;42.862;25.098;2022-10-16T04:51:07;3.70;99.90
6462;DHT22;3264;42.862;25.098;2022-10-16T04:53:36;3.60;99.90
6462;DHT22;3264;42.862;25.098;2022-10-16T04:56:06;3.70;99.90
6462;DHT22;3264;42.862;25.098;2022-10-16T04:58:33;3.70;99.90
6462;DHT22;3264;42.862;25.098;2022-10-16T05:01:03;3.70;99.90
6462;DHT22;3264;42.862;25.098;2022-10-16T05:03:31;3.80;99.90
6462;DHT22;3264;42.862;25.098;2022-10-16T05:06:00;3.80;99.90
6462;DHT22;3264;42.862;25.098;2022-10-16T05:08:28;3.90;99.90
6462;DHT22;3264;42.862;25.098;2022-10-16T05:10:57;3.90;99.90
6462;DHT22;3264;42.862;25.098;2022-10-16T05:13:25;4.00;99.90
6462;DHT22;3264;42.862;25.098;2022-10-16T05:15:54;4.10;99.90
6462;DHT22;3264;42.862;25.098;2022-10-16T05:18:23;4.20;99.90
6462;DHT22;3264;42.862;25.098;2022-10-16T05:20:50;4.30;99.90
6462;DHT22;3264;42.862;25.098;2022-10-16T05:23:19;4.40;99.90
6462;DHT22;3264;42.862;25.098;2022-10-16T05:25:53;4.50;99.90
6462;DHT22;3264;42.862;25.098;2022-10-16T05:28:24;4.70;99.90
6462;DHT22;3264;42.862;25.098;2022-10-16T05:30:53;4.80;99.90
6462;DHT22;3264;42.862;25.098;2022-10-16T05:33:25;4.70;99.90
6462;DHT22;3264;42.862;25.098;2022-10-16T05:35:53;4.60;99.90
6462;DHT22;3264;42.862;25.098;2022-10-16T05:38:21;4.90;99.90
6462;DHT22;3264;42.862;25.098;2022-10-16T05:40:52;5.10;99.90
6462;DHT22;3264;42.862;25.098;2022-10-16T05:43:21;5.30;99.90
6462;DHT22;3264;42.862;25.098;2022-10-16T05:45:55;5.40;99.90
6462;DHT22;3264;42.862;25.098;2022-10-16T05:48:24;5.60;99.90
6462;DHT22;3264;42.862;25.098;2022-10-16T05:50:59;5.60;99.90
6462;DHT22;3264;42.862;25.098;2022-10-16T05:53:29;5.40;99.90
6462;DHT22;3264;42.862;25.098;2022-10-16T05:55:58;5.90;99.90
6462;DHT22;3264;42.862;25.098;2022-10-16T05:58:28;6.00;99.90
6462;DHT22;3264;42.862;25.098;2022-10-16T06:00:58;6.40;99.90
6462;DHT22;3264;42.862;25.098;2022-10-16T06:03:28;6.70;99.90
6462;DHT22;3264;42.862;25.098;2022-10-16T06:05:55;6.90;99.90
6462;DHT22;3264;42.862;25.098;2022-10-16T06:08:24;7.10;99.90
6462;DHT22;3264;42.862;25.098;2022-10-16T06:11:01;7.10;99.90
6462;DHT22;3264;42.862;25.098;2022-10-16T06:13:29;7.00;99.90
6462;DHT22;3264;42.862;25.098;2022-10-16T06:15:57;7.10;99.90
6462;DHT22;3264;42.862;25.098;2022-10-16T06:18:28;7.10;99.90
6462;DHT22;3264;42.862;25.098;2022-10-16T06:20:56;7.20;99.90
6462;DHT22;3264;42.862;25.098;2022-10-16T06:23:25;7.70;99.90
6462;DHT22;3264;42.862;25.098;2022-10-16T06:25:53;8.20;99.90
6462;DHT22;3264;42.862;25.098;2022-10-16T06:28:22;8.50;99.90
6462;DHT22;3264;42.862;25.098;2022-10-16T06:30:59;8.60;99.90
6462;DHT22;3264;42.862;25.098;2022-10-16T06:33:29;8.00;99.90
6462;DHT22;3264;42.862;25.098;2022-10-16T06:36:01;8.70;99.90
6462;DHT22;3264;42.862;25.098;2022-10-16T06:38:30;8.30;99.90
6462;DHT22;3264;42.862;25.098;2022-10-16T06:40:58;8.70;99.90
6462;DHT22;3264;42.862;25.098;2022-10-16T06:43:28;9.30;99.90
6462;DHT22;3264;42.862;25.098;2022-10-16T06:45:59;9.70;99.90
6462;DHT22;3264;42.862;25.098;2022-10-16T06:48:29;9.70;99.90
6462;DHT22;3264;42.862;25.098;2022-10-16T06:50:58;9.70;99.90
6462;DHT22;3264;42.862;25.098;2022-10-16T06:53:27;10.00;99.90
6462;DHT22;3264;42.862;25.098;2022-10-16T06:55:55;10.30;99.90
6462;DHT22;3264;42.862;25.098;2022-10-16T06:58:24;11.10;99.90
6462;DHT22;3264;42.862;25.098;2022-10-16T07:00:55;11.10;99.90
6462;DHT22;3264;42.862;25.098;2022-10-16T07:03:25;11.40;99.90
6462;DHT22;3264;42.862;25.098;2022-10-16T07:05:55;11.30;99.90
6462;DHT22;3264;42.862;25.098;2022-10-16T07:08:24;11.40;99.90
6462;DHT22;3264;42.862;25.098;2022-10-16T07:10:59;11.10;99.90
6462;DHT22;3264;42.862;25.098;2022-10-16T07:13:27;11.10;99.90
6462;DHT22;3264;42.862;25.098;2022-10-16T07:15:55;11.60;99.90
6462;DHT22;3264;42.862;25.098;2022-10-16T07:18:24;12.00;99.90
6462;DHT22;3264;42.862;25.098;2022-10-16T07:21:04;11.80;99.90
6462;DHT22;3264;42.862;25.098;2022-10-16T07:23:31;12.30;99.90
6462;DHT22;3264;42.862;25.098;2022-10-16T07:26:00;12.20;99.90
6462;DHT22;3264;42.862;25.098;2022-10-16T07:28:28;12.10;99.90
6462;DHT22;3264;42.862;25.098;2022-10-16T07:31:00;12.80;99.90
6462;DHT22;3264;42.862;25.098;2022-10-16T07:33:30;13.20;98.30
6462;DHT22;3264;42.862;25.098;2022-10-16T07:35:59;13.70;99.70
6462;DHT22;3264;42.862;25.098;2022-10-16T07:38:28;14.50;99.40
6462;DHT22;3264;42.862;25.098;2022-10-16T07:40:57;14.80;98.40
6462;DHT22;3264;42.862;25.098;2022-10-16T07:43:25;15.30;96.60
6462;DHT22;3264;42.862;25.098;2022-10-16T07:45:54;15.30;95.10
6462;DHT22;3264;42.862;25.098;2022-10-16T07:48:23;15.70;95.70
6462;DHT22;3264;42.862;25.098;2022-10-16T07:50:52;16.00;94.40
6462;DHT22;3264;42.862;25.098;2022-10-16T07:53:21;16.10;94.10
6462;DHT22;3264;42.862;25.098;2022-10-16T07:55:49;16.20;93.60
6462;DHT22;3264;42.862;25.098;2022-10-16T07:58:17;16.30;92.80
6462;DHT22;3264;42.862;25.098;2022-10-16T08:00:46;16.60;93.30
6462;DHT22;3264;42.862;25.098;2022-10-16T08:03:13;17.20;93.40
6462;DHT22;3264;42.862;25.098;2022-10-16T08:05:41;17.90;91.10
6462;DHT22;3264;42.862;25.098;2022-10-16T08:08:12;18.10;91.30
6462;DHT22;3264;42.862;25.098;2022-10-16T08:10:41;18.20;86.20
6462;DHT22;3264;42.862;25.098;2022-10-16T08:13:10;20.30;82.90
6462;DHT22;3264;42.862;25.098;2022-10-16T08:15:38;20.20;77.60
6462;DHT22;3264;42.862;25.098;2022-10-16T08:18:06;20.00;75.40
6462;DHT22;3264;42.862;25.098;2022-10-16T08:20:34;22.00;73.70
6462;DHT22;3264;42.862;25.098;2022-10-16T08:23:06;22.50;64.50
6462;DHT22;3264;42.862;25.098;2022-10-16T08:25:34;22.30;59.30
6462;DHT22;3264;42.862;25.098;2022-10-16T08:28:05;21.50;61.10
6462;DHT22;3264;42.862;25.098;2022-10-16T08:30:33;22.00;63.80
6462;DHT22;3264;42.862;25.098;2022-10-16T08:33:01;22.00;57.30
6462;DHT22;3264;42.862;25.098;2022-10-16T08:35:33;21.50;61.10
6462;DHT22;3264;42.862;25.098;2022-10-16T08:38:03;21.30;59.90
6462;DHT22;3264;42.862;25.098;2022-10-16T08:40:33;21.30;58.40
6462;DHT22;3264;42.862;25.098;2022-10-16T08:43:24;22.60;59.60
6462;DHT22;3264;42.862;25.098;2022-10-16T08:46:19;21.30;57.20
6462;DHT22;3264;42.862;25.098;2022-10-16T08:48:53;21.70;59.10
6462;DHT22;3264;42.862;25.098;2022-10-16T08:51:24;21.70;58.80
6462;DHT22;3264;42.862;25.098;2022-10-16T08:53:56;22.10;58.60
6462;DHT22;3264;42.862;25.098;2022-10-16T08:56:24;21.60;58.50
6462;DHT22;3264;42.862;25.098;2022-10-16T08:58:57;21.20;58.80
6462;DHT22;3264;42.862;25.098;2022-10-16T09:01:34;21.10;56.60
6462;DHT22;3264;42.862;25.098;2022-10-16T09:04:30;21.90;59.00
6462;DHT22;3264;42.862;25.098;2022-10-16T09:07:10;22.00;57.80
6462;DHT22;3264;42.862;25.098;2022-10-16T09:09:56;22.40;58.90
6462;DHT22;3264;42.862;25.098;2022-10-16T09:12:34;20.70;55.70
6462;DHT22;3264;42.862;25.098;2022-10-16T09:15:14;21.50;60.20
6462;DHT22;3264;42.862;25.098;2022-10-16T09:17:52;21.60;58.90
6462;DHT22;3264;42.862;25.098;2022-10-16T09:20:30;21.30;57.70
6462;DHT22;3264;42.862;25.098;2022-10-16T09:23:16;21.60;56.60
6462;DHT22;3264;42.862;25.098;2022-10-16T09:25:47;21.90;57.50
6462;DHT22;3264;42.862;25.098;2022-10-16T09:28:17;22.00;57.60
6462;DHT22;3264;42.862;25.098;2022-10-16T09:30:48;22.20;55.40
6462;DHT22;3264;42.862;25.098;2022-10-16T09:33:18;21.20;55.10
6462;DHT22;3264;42.862;25.098;2022-10-16T09:35:48;21.70;56.20
6462;DHT22;3264;42.862;25.098;2022-10-16T09:38:26;22.40;58.10
6462;DHT22;3264;42.862;25.098;2022-10-16T09:40:56;22.60;56.10
6462;DHT22;3264;42.862;25.098;2022-10-16T09:43:26;22.30;54.10
6462;DHT22;3264;42.862;25.098;2022-10-16T09:46:03;22.30;57.10
6462;DHT22;3264;42.862;25.098;2022-10-16T09:48:36;21.90;56.50
6462;DHT22;3264;42.862;25.098;2022-10-16T09:51:23;21.70;54.40
6462;DHT22;3264;42.862;25.098;2022-10-16T09:53:56;21.30;57.20
6462;DHT22;3264;42.862;25.098;2022-10-16T09:56:26;21.80;58.00
6462;DHT22;3264;42.862;25.098;2022-10-16T09:58:55;22.00;58.90
6462;DHT22;3264;42.862;25.098;2022-10-16T10:01:30;21.50;60.50
6462;DHT22;3264;42.862;25.098;2022-10-16T10:03:58;21.30;59.60
6462;DHT22;3264;42.862;25.098;2022-10-16T10:06:30;20.70;58.00
6462;DHT22;3264;42.862;25.098;2022-10-16T10:09:05;19.80;61.90
6462;DHT22;3264;42.862;25.098;2022-10-16T10:11:40;20.40;62.70
6462;DHT22;3264;42.862;25.098;2022-10-16T10:14:20;20.80;62.60
6462;DHT22;3264;42.862;25.098;2022-10-16T10:16:51;21.70;63.80
6462;DHT22;3264;42.862;25.098;2022-10-16T10:19:21;20.90;57.70
6462;DHT22;3264;42.862;25.098;2022-10-16T10:21:50;21.00;58.00
6462;DHT22;3264;42.862;25.098;2022-10-16T10:24:19;19.70;59.80
6462;DHT22;3264;42.862;25.098;2022-10-16T10:26:54;19.50;59.80
6462;DHT22;3264;42.862;25.098;2022-10-16T10:29:40;19.70;61.00
6462;DHT22;3264;42.862;25.098;2022-10-16T10:32:22;19.20;60.30
6462;DHT22;3264;42.862;25.098;2022-10-16T10:35:07;18.50;63.40
6462;DHT22;3264;42.862;25.098;2022-10-16T10:37:44;17.70;65.80
6462;DHT22;3264;42.862;25.098;2022-10-16T10:40:29;18.60;66.10
6462;DHT22;3264;42.862;25.098;2022-10-16T10:43:06;18.90;63.70
6462;DHT22;3264;42.862;25.098;2022-10-16T10:45:43;19.30;62.50
6462;DHT22;3264;42.862;25.098;2022-10-16T10:48:25;20.10;62.00
6462;DHT22;3264;42.862;25.098;2022-10-16T10:51:00;20.10;60.80
6462;DHT22;3264;42.862;25.098;2022-10-16T10:53:40;19.20;60.10
6462;DHT22;3264;42.862;25.098;2022-10-16T10:56:21;19.10;61.40
6462;DHT22;3264;42.862;25.098;2022-10-16T10:59:00;19.60;64.70
6462;DHT22;3264;42.862;25.098;2022-10-16T11:01:35;19.10;60.40
6462;DHT22;3264;42.862;25.098;2022-10-16T11:04:26;19.20;61.50
6462;DHT22;3264;42.862;25.098;2022-10-16T11:06:59;19.20;62.80
6462;DHT22;3264;42.862;25.098;2022-10-16T11:09:34;19.50;60.90
6462;DHT22;3264;42.862;25.098;2022-10-16T11:12:08;19.40;59.80
6462;DHT22;3264;42.862;25.098;2022-10-16T11:14:45;19.40;60.50
6462;DHT22;3264;42.862;25.098;2022-10-16T11:17:18;18.80;58.50
6462;DHT22;3264;42.862;25.098;2022-10-16T11:19:51;18.50;60.50
6462;DHT22;3264;42.862;25.098;2022-10-16T11:22:24;18.70;63.20
6462;DHT22;3264;42.862;25.098;2022-10-16T11:25:02;18.80;62.80
6462;DHT22;3264;42.862;25.098;2022-10-16T11:27:37;19.20;63.30
6462;DHT22;3264;42.862;25.098;2022-10-16T11:30:12;19.10;61.60
6462;DHT22;3264;42.862;25.098;2022-10-16T11:32:52;19.40;62.40
6462;DHT22;3264;42.862;25.098;2022-10-16T11:35:37;19.10;61.80
6462;DHT22;3264;42.862;25.098;2022-10-16T11:38:12;18.60;61.70
6462;DHT22;3264;42.862;25.098;2022-10-16T11:40:43;18.60;62.40
6462;DHT22;3264;42.862;25.098;2022-10-16T11:43:17;18.60;62.20
6462;DHT22;3264;42.862;25.098;2022-10-16T11:45:50;19.10;63.90
6462;DHT22;3264;42.862;25.098;2022-10-16T11:48:25;18.70;60.60
6462;DHT22;3264;42.862;25.098;2022-10-16T11:51:02;18.90;61.20
6462;DHT22;3264;42.862;25.098;2022-10-16T11:53:45;18.80;64.00
6462;DHT22;3264;42.862;25.098;2022-10-16T11:56:16;18.70;64.60
6462;DHT22;3264;42.862;25.098;2022-10-16T11:58:52;18.60;63.30
6462;DHT22;3264;42.862;25.098;2022-10-16T12:01:28;18.70;61.50
6462;DHT22;3264;42.862;25.098;2022-10-16T12:04:05;18.40;60.40
6462;DHT22;3264;42.862;25.098;2022-10-16T12:06:40;18.10;60.50
6462;DHT22;3264;42.862;25.098;2022-10-16T12:09:15;18.50;65.60
6462;DHT22;3264;42.862;25.098;2022-10-16T12:11:45;18.20;60.00
6462;DHT22;3264;42.862;25.098;2022-10-16T12:14:34;18.40;59.70
6462;DHT22;3264;42.862;25.098;2022-10-16T12:19:58;18.50;63.10
6462;DHT22;3264;42.862;25.098;2022-10-16T12:22:30;18.30;60.30
6462;DHT22;3264;42.862;25.098;2022-10-16T12:24:59;18.40;59.50
6462;DHT22;3264;42.862;25.098;2022-10-16T12:27:29;18.60;61.90
6462;DHT22;3264;42.862;25.098;2022-10-16T12:30:00;18.40;61.00
6462;DHT22;3264;42.862;25.098;2022-10-16T12:32:31;18.00;59.00
6462;DHT22;3264;42.862;25.098;2022-10-16T12:35:25;17.90;60.30
6462;DHT22;3264;42.862;25.098;2022-10-16T12:38:12;18.10;58.90
6462;DHT22;3264;42.862;25.098;2022-10-16T12:40:46;17.90;60.10
6462;DHT22;3264;42.862;25.098;2022-10-16T12:43:35;17.90;59.70
6462;DHT22;3264;42.862;25.098;2022-10-16T12:46:05;18.00;60.50
6462;DHT22;3264;42.862;25.098;2022-10-16T12:48:34;17.80;60.50
6462;DHT22;3264;42.862;25.098;2022-10-16T12:51:12;17.90;62.90
6462;DHT22;3264;42.862;25.098;2022-10-16T12:54:00;18.00;62.70
6462;DHT22;3264;42.862;25.098;2022-10-16T12:56:39;17.70;61.20
6462;DHT22;3264;42.862;25.098;2022-10-16T12:59:23;18.10;64.20
6462;DHT22;3264;42.862;25.098;2022-10-16T13:02:05;18.00;61.10
6462;DHT22;3264;42.862;25.098;2022-10-16T13:04:58;17.70;63.40
6462;DHT22;3264;42.862;25.098;2022-10-16T13:07:44;17.60;62.70
6462;DHT22;3264;42.862;25.098;2022-10-16T13:10:21;17.70;62.00
6462;DHT22;3264;42.862;25.098;2022-10-16T13:13:09;17.60;64.40
6462;DHT22;3264;42.862;25.098;2022-10-16T13:15:51;17.60;60.10
6462;DHT22;3264;42.862;25.098;2022-10-16T13:18:26;17.40;60.30
6462;DHT22;3264;42.862;25.098;2022-10-16T13:21:14;17.70;62.80
6462;DHT22;3264;42.862;25.098;2022-10-16T13:23:51;17.60;59.30
6462;DHT22;3264;42.862;25.098;2022-10-16T13:26:31;17.50;61.20
6462;DHT22;3264;42.862;25.098;2022-10-16T13:29:02;17.70;61.50
6462;DHT22;3264;42.862;25.098;2022-10-16T13:31:31;17.90;61.40
6462;DHT22;3264;42.862;25.098;2022-10-16T13:34:00;17.60;60.20
6462;DHT22;3264;42.862;25.098;2022-10-16T13:36:30;17.50;61.50
6462;DHT22;3264;42.862;25.098;2022-10-16T13:39:01;17.30;60.90
6462;DHT22;3264;42.862;25.098;2022-10-16T13:41:36;17.40;64.50
6462;DHT22;3264;42.862;25.098;2022-10-16T13:44:07;17.50;65.60
6462;DHT22;3264;42.862;25.098;2022-10-16T13:46:38;17.40;63.50
6462;DHT22;3264;42.862;25.098;2022-10-16T13:49:13;17.20;65.70
6462;DHT22;3264;42.862;25.098;2022-10-16T13:51:41;17.20;65.10
6462;DHT22;3264;42.862;25.098;2022-10-16T13:54:10;17.20;63.20
6462;DHT22;3264;42.862;25.098;2022-10-16T13:56:40;17.00;64.90
6462;DHT22;3264;42.862;25.098;2022-10-16T13:59:24;17.10;64.60
6462;DHT22;3264;42.862;25.098;2022-10-16T14:01:55;17.30;64.50
6462;DHT22;3264;42.862;25.098;2022-10-16T14:04:24;17.30;63.60
6462;DHT22;3264;42.862;25.098;2022-10-16T14:06:53;17.20;61.30
6462;DHT22;3264;42.862;25.098;2022-10-16T14:09:24;17.30;65.30
6462;DHT22;3264;42.862;25.098;2022-10-16T14:11:57;17.20;64.90
6462;DHT22;3264;42.862;25.098;2022-10-16T14:14:38;17.00;67.10
6462;DHT22;3264;42.862;25.098;2022-10-16T14:17:13;17.10;65.50
6462;DHT22;3264;42.862;25.098;2022-10-16T14:19:46;17.00;64.50
6462;DHT22;3264;42.862;25.098;2022-10-16T14:22:33;17.00;68.80
6462;DHT22;3264;42.862;25.098;2022-10-16T14:25:18;16.90;65.20
6462;DHT22;3264;42.862;25.098;2022-10-16T14:28:00;16.80;66.10
6462;DHT22;3264;42.862;25.098;2022-10-16T14:30:28;16.80;67.10
6462;DHT22;3264;42.862;25.098;2022-10-16T14:32:58;16.60;64.90
6462;DHT22;3264;42.862;25.098;2022-10-16T14:35:29;16.60;65.70
6462;DHT22;3264;42.862;25.098;2022-10-16T14:38:00;16.50;67.90
6462;DHT22;3264;42.862;25.098;2022-10-16T14:40:31;16.40;68.40
6462;DHT22;3264;42.862;25.098;2022-10-16T14:43:02;16.30;67.10
6462;DHT22;3264;42.862;25.098;2022-10-16T14:45:32;16.10;71.40
6462;DHT22;3264;42.862;25.098;2022-10-16T14:48:02;16.00;71.90
6462;DHT22;3264;42.862;25.098;2022-10-16T14:50:32;15.80;71.10
6462;DHT22;3264;42.862;25.098;2022-10-16T14:53:00;15.70;73.30
6462;DHT22;3264;42.862;25.098;2022-10-16T14:55:28;15.60;74.00
6462;DHT22;3264;42.862;25.098;2022-10-16T14:57:57;15.40;74.70
6462;DHT22;3264;42.862;25.098;2022-10-16T15:00:26;15.20;74.90
6462;DHT22;3264;42.862;25.098;2022-10-16T15:02:54;15.00;75.60
6462;DHT22;3264;42.862;25.098;2022-10-16T15:05:24;14.70;77.80
6462;DHT22;3264;42.862;25.098;2022-10-16T15:07:54;14.30;79.50
6462;DHT22;3264;42.862;25.098;2022-10-16T15:10:24;14.00;80.90
6462;DHT22;3264;42.862;25.098;2022-10-16T15:12:54;13.80;82.90
6462;DHT22;3264;42.862;25.098;2022-10-16T15:15:34;13.50;84.40
6462;DHT22;3264;42.862;25.098;2022-10-16T15:18:03;13.40;87.50
6462;DHT22;3264;42.862;25.098;2022-10-16T15:20:34;13.20;90.20
6462;DHT22;3264;42.862;25.098;2022-10-16T15:23:04;13.00;91.10
6462;DHT22;3264;42.862;25.098;2022-10-16T15:25:37;12.80;91.80
6462;DHT22;3264;42.862;25.098;2022-10-16T15:28:08;12.60;93.30
6462;DHT22;3264;42.862;25.098;2022-10-16T15:30:38;12.40;93.90
6462;DHT22;3264;42.862;25.098;2022-10-16T15:33:12;12.30;95.10
6462;DHT22;3264;42.862;25.098;2022-10-16T15:35:41;12.10;95.60
6462;DHT22;3264;42.862;25.098;2022-10-16T15:38:11;12.00;96.50
6462;DHT22;3264;42.862;25.098;2022-10-16T15:40:41;11.80;97.30
6462;DHT22;3264;42.862;25.098;2022-10-16T15:43:08;11.70;97.90
6462;DHT22;3264;42.862;25.098;2022-10-16T15:45:39;11.60;98.50
6462;DHT22;3264;42.862;25.098;2022-10-16T15:48:10;11.50;98.90
6462;DHT22;3264;42.862;25.098;2022-10-16T15:50:40;11.40;99.70
6462;DHT22;3264;42.862;25.098;2022-10-16T15:53:09;11.40;99.50
6462;DHT22;3264;42.862;25.098;2022-10-16T15:55:38;11.10;99.90
6462;DHT22;3264;42.862;25.098;2022-10-16T15:58:06;11.00;99.90
6462;DHT22;3264;42.862;25.098;2022-10-16T16:00:34;10.90;99.90
6462;DHT22;3264;42.862;25.098;2022-10-16T16:03:08;10.80;99.90
6462;DHT22;3264;42.862;25.098;2022-10-16T16:05:38;10.80;99.90
6462;DHT22;3264;42.862;25.098;2022-10-16T16:08:07;10.70;99.90
6462;DHT22;3264;42.862;25.098;2022-10-16T16:10:36;10.60;99.90
6462;DHT22;3264;42.862;25.098;2022-10-16T16:13:04;10.50;99.90
6462;DHT22;3264;42.862;25.098;2022-10-16T16:15:32;10.40;99.90
6462;DHT22;3264;42.862;25.098;2022-10-16T16:18:00;10.30;99.90
6462;DHT22;3264;42.862;25.098;2022-10-16T16:20:34;10.40;99.90
6462;DHT22;3264;42.862;25.098;2022-10-16T16:23:08;10.30;99.90
6462;DHT22;3264;42.862;25.098;2022-10-16T16:25:36;10.20;99.90
6462;DHT22;3264;42.862;25.098;2022-10-16T16:28:05;10.20;99.90